sensor_id;sensor_type;location;lat;lon;timestamp;P1;durP1;ratioP1;P2;durP2;ratioP2
59390;SDS011;53405;57.012;40.984;2023-06-26T00:02:08;19.48;;;10.90;;
59390;SDS011;53405;57.012;40.984;2023-06-26T00:04:36;13.60;;;10.40;;
59390;SDS011;53405;57.012;40.984;2023-06-26T00:07:04;15.95;;;10.80;;
59390;SDS011;53405;57.012;40.984;2023-06-26T00:09:34;13.45;;;10.98;;
59390;SDS011;53405;57.012;40.984;2023-06-26T00:12:01;15.30;;;11.00;;
59390;SDS011;53405;57.012;40.984;2023-06-26T00:14:29;15.95;;;10.23;;
59390;SDS011;53405;57.012;40.984;2023-06-26T00:16:57;15.77;;;11.02;;
59390;SDS011;53405;57.012;40.984;2023-06-26T00:19:25;14.82;;;10.57;;
59390;SDS011;53405;57.012;40.984;2023-06-26T00:21:53;16.10;;;11.07;;
59390;SDS011;53405;57.012;40.984;2023-06-26T00:24:20;13.30;;;10.38;;
59390;SDS011;53405;57.012;40.984;2023-06-26T00:26:48;15.48;;;10.73;;
59390;SDS011;53405;57.012;40.984;2023-06-26T00:29:16;15.00;;;11.23;;
59390;SDS011;53405;57.012;40.984;2023-06-26T00:31:44;13.65;;;10.20;;
59390;SDS011;53405;57.012;40.984;2023-06-26T00:34:12;13.70;;;10.65;;
59390;SDS011;53405;57.012;40.984;2023-06-26T00:36:39;15.50;;;10.48;;
59390;SDS011;53405;57.012;40.984;2023-06-26T00:39:09;13.27;;;10.73;;
59390;SDS011;53405;57.012;40.984;2023-06-26T00:41:37;15.02;;;10.15;;
59390;SDS011;53405;57.012;40.984;2023-06-26T00:44:05;15.45;;;10.38;;
59390;SDS011;53405;57.012;40.984;2023-06-26T00:46:33;13.65;;;10.40;;
59390;SDS011;53405;57.012;40.984;2023-06-26T00:49:02;15.82;;;10.50;;
59390;SDS011;53405;57.012;40.984;2023-06-26T00:51:30;14.00;;;10.90;;
59390;SDS011;53405;57.012;40.984;2023-06-26T00:54:00;16.52;;;10.40;;
59390;SDS011;53405;57.012;40.984;2023-06-26T00:56:28;15.82;;;10.57;;
59390;SDS011;53405;57.012;40.984;2023-06-26T00:58:58;13.18;;;10.10;;
59390;SDS011;53405;57.012;40.984;2023-06-26T01:01:27;17.40;;;11.27;;
59390;SDS011;53405;57.012;40.984;2023-06-26T01:03:55;15.10;;;10.38;;
59390;SDS011;53405;57.012;40.984;2023-06-26T01:06:25;14.73;;;10.60;;
59390;SDS011;53405;57.012;40.984;2023-06-26T01:08:58;20.30;;;10.93;;
59390;SDS011;53405;57.012;40.984;2023-06-26T01:11:27;16.25;;;9.93;;
59390;SDS011;53405;57.012;40.984;2023-06-26T01:13:55;13.07;;;9.68;;
59390;SDS011;53405;57.012;40.984;2023-06-26T01:16:24;14.75;;;10.30;;
59390;SDS011;53405;57.012;40.984;2023-06-26T01:18:52;16.93;;;11.67;;
59390;SDS011;53405;57.012;40.984;2023-06-26T01:21:20;13.68;;;10.15;;
59390;SDS011;53405;57.012;40.984;2023-06-26T01:26:49;14.13;;;10.82;;
59390;SDS011;53405;57.012;40.984;2023-06-26T01:29:18;13.68;;;10.15;;
59390;SDS011;53405;57.012;40.984;2023-06-26T01:31:50;14.70;;;10.05;;
59390;SDS011;53405;57.012;40.984;2023-06-26T01:34:18;13.43;;;9.82;;
59390;SDS011;53405;57.012;40.984;2023-06-26T01:36:48;14.90;;;9.88;;
59390;SDS011;53405;57.012;40.984;2023-06-26T01:39:17;15.93;;;9.98;;
59390;SDS011;53405;57.012;40.984;2023-06-26T01:41:46;13.88;;;10.00;;
59390;SDS011;53405;57.012;40.984;2023-06-26T01:47:07;13.25;;;9.43;;
59390;SDS011;53405;57.012;40.984;2023-06-26T01:52:12;14.30;;;9.23;;
59390;SDS011;53405;57.012;40.984;2023-06-26T01:54:46;14.00;;;9.73;;
59390;SDS011;53405;57.012;40.984;2023-06-26T01:57:19;13.82;;;9.75;;
59390;SDS011;53405;57.012;40.984;2023-06-26T01:59:50;13.07;;;9.32;;
59390;SDS011;53405;57.012;40.984;2023-06-26T02:04:46;15.45;;;9.73;;
59390;SDS011;53405;57.012;40.984;2023-06-26T02:07:15;15.15;;;10.50;;
59390;SDS011;53405;57.012;40.984;2023-06-26T02:09:43;11.77;;;9.38;;
59390;SDS011;53405;57.012;40.984;2023-06-26T02:12:10;16.42;;;10.00;;
59390;SDS011;53405;57.012;40.984;2023-06-26T02:14:38;14.18;;;9.75;;
59390;SDS011;53405;57.012;40.984;2023-06-26T02:17:06;14.98;;;10.00;;
59390;SDS011;53405;57.012;40.984;2023-06-26T02:22:03;14.40;;;10.18;;
59390;SDS011;53405;57.012;40.984;2023-06-26T02:24:31;14.18;;;9.73;;
59390;SDS011;53405;57.012;40.984;2023-06-26T02:27:00;14.52;;;9.10;;
59390;SDS011;53405;57.012;40.984;2023-06-26T02:29:28;11.65;;;9.43;;
59390;SDS011;53405;57.012;40.984;2023-06-26T02:31:55;12.23;;;9.38;;
59390;SDS011;53405;57.012;40.984;2023-06-26T02:34:23;13.02;;;9.20;;
59390;SDS011;53405;57.012;40.984;2023-06-26T02:36:50;12.40;;;8.75;;
59390;SDS011;53405;57.012;40.984;2023-06-26T02:39:22;13.15;;;9.25;;
59390;SDS011;53405;57.012;40.984;2023-06-26T02:41:50;13.32;;;9.18;;
59390;SDS011;53405;57.012;40.984;2023-06-26T02:44:18;11.90;;;8.68;;
59390;SDS011;53405;57.012;40.984;2023-06-26T02:46:46;11.23;;;8.65;;
59390;SDS011;53405;57.012;40.984;2023-06-26T02:49:14;13.25;;;9.13;;
59390;SDS011;53405;57.012;40.984;2023-06-26T02:51:43;12.95;;;8.90;;
59390;SDS011;53405;57.012;40.984;2023-06-26T02:54:20;13.52;;;8.65;;
59390;SDS011;53405;57.012;40.984;2023-06-26T02:56:52;13.63;;;9.10;;
59390;SDS011;53405;57.012;40.984;2023-06-26T02:59:25;11.35;;;8.50;;
59390;SDS011;53405;57.012;40.984;2023-06-26T03:01:54;14.02;;;8.60;;
59390;SDS011;53405;57.012;40.984;2023-06-26T03:04:29;12.85;;;8.35;;
59390;SDS011;53405;57.012;40.984;2023-06-26T03:06:56;11.40;;;8.63;;
59390;SDS011;53405;57.012;40.984;2023-06-26T03:09:25;13.90;;;8.90;;
59390;SDS011;53405;57.012;40.984;2023-06-26T03:11:53;11.73;;;8.35;;
59390;SDS011;53405;57.012;40.984;2023-06-26T03:14:23;12.27;;;8.48;;
59390;SDS011;53405;57.012;40.984;2023-06-26T03:16:50;11.10;;;8.32;;
59390;SDS011;53405;57.012;40.984;2023-06-26T03:19:20;14.35;;;8.27;;
59390;SDS011;53405;57.012;40.984;2023-06-26T03:22:17;11.57;;;8.07;;
59390;SDS011;53405;57.012;40.984;2023-06-26T03:24:45;13.20;;;8.13;;
59390;SDS011;53405;57.012;40.984;2023-06-26T03:27:13;11.38;;;7.75;;
59390;SDS011;53405;57.012;40.984;2023-06-26T03:29:41;13.27;;;8.13;;
59390;SDS011;53405;57.012;40.984;2023-06-26T03:32:09;12.50;;;7.72;;
59390;SDS011;53405;57.012;40.984;2023-06-26T03:34:37;9.60;;;7.50;;
59390;SDS011;53405;57.012;40.984;2023-06-26T03:37:05;12.35;;;8.15;;
59390;SDS011;53405;57.012;40.984;2023-06-26T03:39:33;10.73;;;7.70;;
59390;SDS011;53405;57.012;40.984;2023-06-26T03:42:02;11.40;;;7.63;;
59390;SDS011;53405;57.012;40.984;2023-06-26T03:44:30;11.30;;;7.55;;
59390;SDS011;53405;57.012;40.984;2023-06-26T03:46:57;11.73;;;7.47;;
59390;SDS011;53405;57.012;40.984;2023-06-26T03:49:25;12.48;;;6.95;;
59390;SDS011;53405;57.012;40.984;2023-06-26T03:51:53;11.15;;;7.13;;
59390;SDS011;53405;57.012;40.984;2023-06-26T03:54:22;9.75;;;7.05;;
59390;SDS011;53405;57.012;40.984;2023-06-26T03:56:49;10.73;;;7.07;;
59390;SDS011;53405;57.012;40.984;2023-06-26T03:59:17;19.77;;;14.40;;
59390;SDS011;53405;57.012;40.984;2023-06-26T04:01:44;10.52;;;7.53;;
59390;SDS011;53405;57.012;40.984;2023-06-26T04:04:14;12.10;;;8.85;;
59390;SDS011;53405;57.012;40.984;2023-06-26T04:06:42;11.02;;;8.43;;
59390;SDS011;53405;57.012;40.984;2023-06-26T04:09:09;10.55;;;7.38;;
59390;SDS011;53405;57.012;40.984;2023-06-26T04:11:37;10.50;;;6.68;;
59390;SDS011;53405;57.012;40.984;2023-06-26T04:14:05;10.88;;;7.35;;
59390;SDS011;53405;57.012;40.984;2023-06-26T04:16:32;11.50;;;6.40;;
59390;SDS011;53405;57.012;40.984;2023-06-26T04:19:00;10.52;;;6.63;;
59390;SDS011;53405;57.012;40.984;2023-06-26T04:21:29;12.07;;;6.85;;
59390;SDS011;53405;57.012;40.984;2023-06-26T04:23:57;14.23;;;6.05;;
59390;SDS011;53405;57.012;40.984;2023-06-26T04:26:24;8.68;;;6.30;;
59390;SDS011;53405;57.012;40.984;2023-06-26T04:28:52;12.52;;;6.43;;
59390;SDS011;53405;57.012;40.984;2023-06-26T04:31:19;9.18;;;5.47;;
59390;SDS011;53405;57.012;40.984;2023-06-26T04:33:47;10.75;;;5.85;;
59390;SDS011;53405;57.012;40.984;2023-06-26T04:36:18;8.40;;;5.50;;
59390;SDS011;53405;57.012;40.984;2023-06-26T04:38:45;9.32;;;5.38;;
59390;SDS011;53405;57.012;40.984;2023-06-26T04:41:15;15.65;;;9.02;;
59390;SDS011;53405;57.012;40.984;2023-06-26T04:43:42;9.18;;;5.00;;
59390;SDS011;53405;57.012;40.984;2023-06-26T04:46:10;10.70;;;5.43;;
59390;SDS011;53405;57.012;40.984;2023-06-26T04:48:38;8.93;;;4.88;;
59390;SDS011;53405;57.012;40.984;2023-06-26T04:51:06;11.27;;;5.53;;
59390;SDS011;53405;57.012;40.984;2023-06-26T04:53:33;10.35;;;5.25;;
59390;SDS011;53405;57.012;40.984;2023-06-26T04:56:01;9.23;;;6.05;;
59390;SDS011;53405;57.012;40.984;2023-06-26T04:58:29;9.13;;;5.60;;
59390;SDS011;53405;57.012;40.984;2023-06-26T05:00:57;11.00;;;5.57;;
59390;SDS011;53405;57.012;40.984;2023-06-26T05:03:25;10.68;;;5.63;;
59390;SDS011;53405;57.012;40.984;2023-06-26T05:05:53;10.10;;;5.10;;
59390;SDS011;53405;57.012;40.984;2023-06-26T05:08:24;8.60;;;5.10;;
59390;SDS011;53405;57.012;40.984;2023-06-26T05:10:53;9.00;;;5.50;;
59390;SDS011;53405;57.012;40.984;2023-06-26T05:13:25;10.65;;;5.28;;
59390;SDS011;53405;57.012;40.984;2023-06-26T05:15:53;8.87;;;5.20;;
59390;SDS011;53405;57.012;40.984;2023-06-26T05:18:21;8.60;;;5.50;;
59390;SDS011;53405;57.012;40.984;2023-06-26T05:20:48;10.13;;;5.55;;
59390;SDS011;53405;57.012;40.984;2023-06-26T05:23:16;13.90;;;5.85;;
59390;SDS011;53405;57.012;40.984;2023-06-26T05:25:44;8.07;;;5.05;;
59390;SDS011;53405;57.012;40.984;2023-06-26T05:28:12;7.75;;;5.53;;
59390;SDS011;53405;57.012;40.984;2023-06-26T05:30:42;10.23;;;5.65;;
59390;SDS011;53405;57.012;40.984;2023-06-26T05:33:10;10.00;;;6.45;;
59390;SDS011;53405;57.012;40.984;2023-06-26T05:35:39;9.65;;;6.07;;
59390;SDS011;53405;57.012;40.984;2023-06-26T05:38:08;10.40;;;6.40;;
59390;SDS011;53405;57.012;40.984;2023-06-26T05:40:36;12.02;;;6.05;;
59390;SDS011;53405;57.012;40.984;2023-06-26T05:43:04;8.05;;;5.30;;
59390;SDS011;53405;57.012;40.984;2023-06-26T05:45:32;10.13;;;5.07;;
59390;SDS011;53405;57.012;40.984;2023-06-26T05:48:00;8.45;;;5.20;;
59390;SDS011;53405;57.012;40.984;2023-06-26T05:50:28;9.77;;;5.43;;
59390;SDS011;53405;57.012;40.984;2023-06-26T05:52:56;8.10;;;5.25;;
59390;SDS011;53405;57.012;40.984;2023-06-26T05:55:24;8.18;;;5.13;;
59390;SDS011;53405;57.012;40.984;2023-06-26T05:57:52;8.20;;;5.07;;
59390;SDS011;53405;57.012;40.984;2023-06-26T06:00:22;10.40;;;5.20;;
59390;SDS011;53405;57.012;40.984;2023-06-26T06:02:50;13.90;;;5.30;;
59390;SDS011;53405;57.012;40.984;2023-06-26T06:05:21;8.90;;;4.80;;
59390;SDS011;53405;57.012;40.984;2023-06-26T06:07:49;7.00;;;4.93;;
59390;SDS011;53405;57.012;40.984;2023-06-26T06:10:17;6.53;;;4.65;;
59390;SDS011;53405;57.012;40.984;2023-06-26T06:12:45;8.35;;;4.95;;
59390;SDS011;53405;57.012;40.984;2023-06-26T06:15:13;7.45;;;4.60;;
59390;SDS011;53405;57.012;40.984;2023-06-26T06:17:40;8.82;;;4.93;;
59390;SDS011;53405;57.012;40.984;2023-06-26T06:20:08;8.55;;;5.20;;
59390;SDS011;53405;57.012;40.984;2023-06-26T06:22:36;8.05;;;4.60;;
59390;SDS011;53405;57.012;40.984;2023-06-26T06:25:04;8.15;;;4.50;;
59390;SDS011;53405;57.012;40.984;2023-06-26T06:27:32;7.93;;;4.68;;
59390;SDS011;53405;57.012;40.984;2023-06-26T06:30:00;8.10;;;5.13;;
59390;SDS011;53405;57.012;40.984;2023-06-26T06:32:31;5.43;;;3.85;;
59390;SDS011;53405;57.012;40.984;2023-06-26T06:34:59;13.65;;;4.80;;
59390;SDS011;53405;57.012;40.984;2023-06-26T06:37:27;9.45;;;5.03;;
59390;SDS011;53405;57.012;40.984;2023-06-26T06:39:56;12.25;;;4.38;;
59390;SDS011;53405;57.012;40.984;2023-06-26T06:42:25;8.38;;;4.13;;
59390;SDS011;53405;57.012;40.984;2023-06-26T06:44:52;7.18;;;3.55;;
59390;SDS011;53405;57.012;40.984;2023-06-26T06:47:20;10.18;;;3.95;;
59390;SDS011;53405;57.012;40.984;2023-06-26T06:49:49;10.30;;;4.00;;
59390;SDS011;53405;57.012;40.984;2023-06-26T06:52:16;10.13;;;4.20;;
59390;SDS011;53405;57.012;40.984;2023-06-26T06:54:53;7.38;;;3.85;;
59390;SDS011;53405;57.012;40.984;2023-06-26T06:57:22;5.47;;;3.40;;
59390;SDS011;53405;57.012;40.984;2023-06-26T06:59:49;9.63;;;3.97;;
59390;SDS011;53405;57.012;40.984;2023-06-26T07:02:18;6.30;;;3.60;;
59390;SDS011;53405;57.012;40.984;2023-06-26T07:04:45;7.05;;;3.85;;
59390;SDS011;53405;57.012;40.984;2023-06-26T07:07:13;8.57;;;3.97;;
59390;SDS011;53405;57.012;40.984;2023-06-26T07:09:41;7.45;;;3.90;;
59390;SDS011;53405;57.012;40.984;2023-06-26T07:12:09;9.57;;;3.90;;
59390;SDS011;53405;57.012;40.984;2023-06-26T07:14:36;6.10;;;3.75;;
59390;SDS011;53405;57.012;40.984;2023-06-26T07:17:04;6.88;;;3.40;;
59390;SDS011;53405;57.012;40.984;2023-06-26T07:19:31;10.02;;;4.70;;
59390;SDS011;53405;57.012;40.984;2023-06-26T07:21:59;7.68;;;3.67;;
59390;SDS011;53405;57.012;40.984;2023-06-26T07:24:27;6.88;;;4.15;;
59390;SDS011;53405;57.012;40.984;2023-06-26T07:26:54;7.22;;;4.63;;
59390;SDS011;53405;57.012;40.984;2023-06-26T07:29:22;7.45;;;4.00;;
59390;SDS011;53405;57.012;40.984;2023-06-26T07:31:50;7.60;;;4.10;;
59390;SDS011;53405;57.012;40.984;2023-06-26T07:34:17;7.07;;;3.83;;
59390;SDS011;53405;57.012;40.984;2023-06-26T07:36:45;5.32;;;3.40;;
59390;SDS011;53405;57.012;40.984;2023-06-26T07:39:14;9.85;;;3.83;;
59390;SDS011;53405;57.012;40.984;2023-06-26T07:44:11;7.35;;;4.00;;
59390;SDS011;53405;57.012;40.984;2023-06-26T07:46:41;7.03;;;4.00;;
59390;SDS011;53405;57.012;40.984;2023-06-26T07:49:08;8.90;;;3.72;;
59390;SDS011;53405;57.012;40.984;2023-06-26T07:51:39;5.30;;;3.15;;
59390;SDS011;53405;57.012;40.984;2023-06-26T07:54:06;6.30;;;3.92;;
59390;SDS011;53405;57.012;40.984;2023-06-26T07:56:53;6.40;;;3.55;;
59390;SDS011;53405;57.012;40.984;2023-06-26T07:59:22;8.13;;;3.93;;
59390;SDS011;53405;57.012;40.984;2023-06-26T08:01:52;8.40;;;3.70;;
59390;SDS011;53405;57.012;40.984;2023-06-26T08:04:21;7.43;;;4.00;;
59390;SDS011;53405;57.012;40.984;2023-06-26T08:06:51;7.00;;;3.70;;
59390;SDS011;53405;57.012;40.984;2023-06-26T08:09:21;9.40;;;3.70;;
59390;SDS011;53405;57.012;40.984;2023-06-26T08:11:50;6.07;;;3.70;;
59390;SDS011;53405;57.012;40.984;2023-06-26T08:14:18;6.47;;;3.40;;
59390;SDS011;53405;57.012;40.984;2023-06-26T08:16:45;5.22;;;3.40;;
59390;SDS011;53405;57.012;40.984;2023-06-26T08:19:14;8.90;;;3.95;;
59390;SDS011;53405;57.012;40.984;2023-06-26T08:21:43;8.52;;;3.60;;
59390;SDS011;53405;57.012;40.984;2023-06-26T08:24:11;6.55;;;4.00;;
59390;SDS011;53405;57.012;40.984;2023-06-26T08:26:46;9.32;;;3.63;;
59390;SDS011;53405;57.012;40.984;2023-06-26T08:29:14;8.18;;;3.72;;
59390;SDS011;53405;57.012;40.984;2023-06-26T08:31:42;5.53;;;3.95;;
59390;SDS011;53405;57.012;40.984;2023-06-26T08:34:11;8.85;;;3.90;;
59390;SDS011;53405;57.012;40.984;2023-06-26T08:36:38;7.15;;;3.67;;
59390;SDS011;53405;57.012;40.984;2023-06-26T08:39:06;10.07;;;3.80;;
59390;SDS011;53405;57.012;40.984;2023-06-26T08:41:38;6.57;;;3.25;;
59390;SDS011;53405;57.012;40.984;2023-06-26T08:44:08;14.40;;;9.30;;
59390;SDS011;53405;57.012;40.984;2023-06-26T08:46:36;9.32;;;4.20;;
59390;SDS011;53405;57.012;40.984;2023-06-26T08:49:14;8.85;;;4.50;;
59390;SDS011;53405;57.012;40.984;2023-06-26T08:51:49;7.90;;;3.70;;
59390;SDS011;53405;57.012;40.984;2023-06-26T08:54:31;6.25;;;3.70;;
59390;SDS011;53405;57.012;40.984;2023-06-26T08:57:06;7.38;;;4.00;;
59390;SDS011;53405;57.012;40.984;2023-06-26T08:59:34;6.00;;;3.07;;
59390;SDS011;53405;57.012;40.984;2023-06-26T09:02:02;9.80;;;4.18;;
59390;SDS011;53405;57.012;40.984;2023-06-26T09:04:30;11.23;;;3.83;;
59390;SDS011;53405;57.012;40.984;2023-06-26T09:06:58;4.72;;;3.08;;
59390;SDS011;53405;57.012;40.984;2023-06-26T09:09:25;6.28;;;3.35;;
59390;SDS011;53405;57.012;40.984;2023-06-26T09:11:53;8.13;;;3.90;;
59390;SDS011;53405;57.012;40.984;2023-06-26T09:14:24;7.82;;;3.30;;
59390;SDS011;53405;57.012;40.984;2023-06-26T09:16:52;5.70;;;3.38;;
59390;SDS011;53405;57.012;40.984;2023-06-26T09:19:19;5.88;;;3.15;;
59390;SDS011;53405;57.012;40.984;2023-06-26T09:21:48;6.20;;;2.83;;
59390;SDS011;53405;57.012;40.984;2023-06-26T09:24:17;7.10;;;3.40;;
59390;SDS011;53405;57.012;40.984;2023-06-26T09:26:45;4.70;;;2.90;;
59390;SDS011;53405;57.012;40.984;2023-06-26T09:29:14;10.60;;;3.17;;
59390;SDS011;53405;57.012;40.984;2023-06-26T09:31:44;7.10;;;3.20;;
59390;SDS011;53405;57.012;40.984;2023-06-26T09:34:15;4.50;;;2.90;;
59390;SDS011;53405;57.012;40.984;2023-06-26T09:36:42;5.85;;;3.13;;
59390;SDS011;53405;57.012;40.984;2023-06-26T09:39:16;5.72;;;3.10;;
59390;SDS011;53405;57.012;40.984;2023-06-26T09:41:43;7.20;;;3.45;;
59390;SDS011;53405;57.012;40.984;2023-06-26T09:44:13;5.93;;;2.95;;
59390;SDS011;53405;57.012;40.984;2023-06-26T09:46:44;8.05;;;3.20;;
59390;SDS011;53405;57.012;40.984;2023-06-26T09:49:12;6.95;;;3.20;;
59390;SDS011;53405;57.012;40.984;2023-06-26T09:51:41;5.20;;;3.22;;
59390;SDS011;53405;57.012;40.984;2023-06-26T09:54:10;5.28;;;3.10;;
59390;SDS011;53405;57.012;40.984;2023-06-26T09:56:37;4.70;;;3.05;;
59390;SDS011;53405;57.012;40.984;2023-06-26T09:59:05;5.55;;;2.88;;
59390;SDS011;53405;57.012;40.984;2023-06-26T10:01:36;8.57;;;3.10;;
59390;SDS011;53405;57.012;40.984;2023-06-26T10:04:10;6.75;;;3.30;;
59390;SDS011;53405;57.012;40.984;2023-06-26T10:06:41;6.95;;;3.20;;
59390;SDS011;53405;57.012;40.984;2023-06-26T10:09:13;6.88;;;3.00;;
59390;SDS011;53405;57.012;40.984;2023-06-26T10:14:11;5.80;;;3.15;;
59390;SDS011;53405;57.012;40.984;2023-06-26T10:16:43;4.70;;;3.10;;
59390;SDS011;53405;57.012;40.984;2023-06-26T10:19:13;4.80;;;2.70;;
59390;SDS011;53405;57.012;40.984;2023-06-26T10:21:46;6.25;;;3.10;;
59390;SDS011;53405;57.012;40.984;2023-06-26T10:24:14;4.63;;;2.87;;
59390;SDS011;53405;57.012;40.984;2023-06-26T10:26:42;7.05;;;3.53;;
59390;SDS011;53405;57.012;40.984;2023-06-26T10:29:15;7.00;;;3.00;;
59390;SDS011;53405;57.012;40.984;2023-06-26T10:31:45;6.22;;;2.83;;
59390;SDS011;53405;57.012;40.984;2023-06-26T10:34:17;6.60;;;2.97;;
59390;SDS011;53405;57.012;40.984;2023-06-26T10:36:44;7.32;;;2.85;;
59390;SDS011;53405;57.012;40.984;2023-06-26T10:39:14;5.88;;;3.03;;
59390;SDS011;53405;57.012;40.984;2023-06-26T10:41:41;4.85;;;2.78;;
59390;SDS011;53405;57.012;40.984;2023-06-26T10:44:23;4.43;;;3.03;;
59390;SDS011;53405;57.012;40.984;2023-06-26T10:49:20;4.70;;;2.70;;
59390;SDS011;53405;57.012;40.984;2023-06-26T10:51:52;6.43;;;3.33;;
59390;SDS011;53405;57.012;40.984;2023-06-26T10:54:21;5.95;;;2.88;;
59390;SDS011;53405;57.012;40.984;2023-06-26T10:56:49;9.27;;;3.38;;
59390;SDS011;53405;57.012;40.984;2023-06-26T11:04:38;6.90;;;2.88;;
59390;SDS011;53405;57.012;40.984;2023-06-26T11:07:14;8.07;;;3.17;;
59390;SDS011;53405;57.012;40.984;2023-06-26T11:09:53;6.80;;;2.92;;
59390;SDS011;53405;57.012;40.984;2023-06-26T11:15:17;4.22;;;2.83;;
59390;SDS011;53405;57.012;40.984;2023-06-26T11:17:46;4.80;;;2.53;;
59390;SDS011;53405;57.012;40.984;2023-06-26T11:20:15;4.68;;;2.60;;
59390;SDS011;53405;57.012;40.984;2023-06-26T11:22:44;5.32;;;3.10;;
59390;SDS011;53405;57.012;40.984;2023-06-26T11:25:11;3.90;;;2.50;;
59390;SDS011;53405;57.012;40.984;2023-06-26T11:27:39;3.92;;;2.67;;
59390;SDS011;53405;57.012;40.984;2023-06-26T11:30:11;5.40;;;3.40;;
59390;SDS011;53405;57.012;40.984;2023-06-26T11:32:50;8.15;;;3.33;;
59390;SDS011;53405;57.012;40.984;2023-06-26T11:35:24;5.63;;;2.70;;
59390;SDS011;53405;57.012;40.984;2023-06-26T11:37:57;6.05;;;3.10;;
59390;SDS011;53405;57.012;40.984;2023-06-26T11:40:35;7.07;;;2.92;;
59390;SDS011;53405;57.012;40.984;2023-06-26T11:43:03;7.82;;;2.65;;
59390;SDS011;53405;57.012;40.984;2023-06-26T11:45:31;5.17;;;2.77;;
59390;SDS011;53405;57.012;40.984;2023-06-26T11:48:00;4.13;;;2.42;;
59390;SDS011;53405;57.012;40.984;2023-06-26T11:50:28;3.88;;;2.40;;
59390;SDS011;53405;57.012;40.984;2023-06-26T11:52:56;4.72;;;2.50;;
59390;SDS011;53405;57.012;40.984;2023-06-26T11:55:25;4.57;;;2.70;;
59390;SDS011;53405;57.012;40.984;2023-06-26T11:57:54;5.20;;;2.72;;
59390;SDS011;53405;57.012;40.984;2023-06-26T12:00:22;6.00;;;3.85;;
59390;SDS011;53405;57.012;40.984;2023-06-26T12:02:50;5.85;;;2.25;;
59390;SDS011;53405;57.012;40.984;2023-06-26T12:05:19;5.80;;;2.33;;
59390;SDS011;53405;57.012;40.984;2023-06-26T12:10:16;6.32;;;2.40;;
59390;SDS011;53405;57.012;40.984;2023-06-26T12:12:45;6.47;;;2.63;;
59390;SDS011;53405;57.012;40.984;2023-06-26T12:15:14;6.03;;;2.30;;
59390;SDS011;53405;57.012;40.984;2023-06-26T12:17:43;7.50;;;2.70;;
59390;SDS011;53405;57.012;40.984;2023-06-26T12:20:18;6.10;;;2.90;;
59390;SDS011;53405;57.012;40.984;2023-06-26T12:22:47;6.13;;;2.47;;
59390;SDS011;53405;57.012;40.984;2023-06-26T12:27:48;5.47;;;2.45;;
59390;SDS011;53405;57.012;40.984;2023-06-26T12:30:17;6.50;;;2.65;;
59390;SDS011;53405;57.012;40.984;2023-06-26T12:32:45;6.22;;;2.92;;
59390;SDS011;53405;57.012;40.984;2023-06-26T12:35:14;6.13;;;2.63;;
59390;SDS011;53405;57.012;40.984;2023-06-26T12:37:43;9.65;;;2.80;;
59390;SDS011;53405;57.012;40.984;2023-06-26T12:40:16;6.00;;;2.67;;
59390;SDS011;53405;57.012;40.984;2023-06-26T12:42:49;5.13;;;2.30;;
59390;SDS011;53405;57.012;40.984;2023-06-26T12:45:17;6.38;;;2.50;;
59390;SDS011;53405;57.012;40.984;2023-06-26T12:47:47;8.73;;;2.90;;
59390;SDS011;53405;57.012;40.984;2023-06-26T12:50:15;6.70;;;3.22;;
59390;SDS011;53405;57.012;40.984;2023-06-26T12:52:44;6.10;;;2.90;;
59390;SDS011;53405;57.012;40.984;2023-06-26T12:55:12;6.63;;;2.75;;
59390;SDS011;53405;57.012;40.984;2023-06-26T12:57:40;6.68;;;2.53;;
59390;SDS011;53405;57.012;40.984;2023-06-26T13:00:07;6.78;;;2.95;;
59390;SDS011;53405;57.012;40.984;2023-06-26T13:02:37;5.55;;;2.53;;
59390;SDS011;53405;57.012;40.984;2023-06-26T13:05:05;5.78;;;2.53;;
59390;SDS011;53405;57.012;40.984;2023-06-26T13:07:32;7.90;;;2.72;;
59390;SDS011;53405;57.012;40.984;2023-06-26T13:10:00;5.63;;;2.80;;
59390;SDS011;53405;57.012;40.984;2023-06-26T13:12:30;6.30;;;2.20;;
59390;SDS011;53405;57.012;40.984;2023-06-26T13:14:58;4.93;;;2.60;;
59390;SDS011;53405;57.012;40.984;2023-06-26T13:17:26;7.25;;;2.83;;
59390;SDS011;53405;57.012;40.984;2023-06-26T13:19:53;12.20;;;3.08;;
59390;SDS011;53405;57.012;40.984;2023-06-26T13:22:21;5.25;;;2.50;;
59390;SDS011;53405;57.012;40.984;2023-06-26T13:24:49;5.20;;;2.60;;
59390;SDS011;53405;57.012;40.984;2023-06-26T13:27:16;7.85;;;2.70;;
59390;SDS011;53405;57.012;40.984;2023-06-26T13:29:44;6.32;;;2.70;;
59390;SDS011;53405;57.012;40.984;2023-06-26T13:32:12;7.13;;;2.92;;
59390;SDS011;53405;57.012;40.984;2023-06-26T13:34:39;8.32;;;2.90;;
59390;SDS011;53405;57.012;40.984;2023-06-26T13:37:08;6.63;;;2.80;;
59390;SDS011;53405;57.012;40.984;2023-06-26T13:39:36;27.07;;;21.67;;
59390;SDS011;53405;57.012;40.984;2023-06-26T13:42:03;8.43;;;3.25;;
59390;SDS011;53405;57.012;40.984;2023-06-26T13:44:31;8.40;;;3.25;;
59390;SDS011;53405;57.012;40.984;2023-06-26T13:47:02;7.20;;;2.97;;
59390;SDS011;53405;57.012;40.984;2023-06-26T13:49:30;5.37;;;2.40;;
59390;SDS011;53405;57.012;40.984;2023-06-26T13:51:57;8.05;;;3.20;;
59390;SDS011;53405;57.012;40.984;2023-06-26T13:54:25;4.45;;;2.47;;
59390;SDS011;53405;57.012;40.984;2023-06-26T13:56:52;5.70;;;3.10;;
59390;SDS011;53405;57.012;40.984;2023-06-26T13:59:24;6.32;;;3.00;;
59390;SDS011;53405;57.012;40.984;2023-06-26T14:01:52;4.50;;;2.47;;
59390;SDS011;53405;57.012;40.984;2023-06-26T14:04:20;5.60;;;2.70;;
59390;SDS011;53405;57.012;40.984;2023-06-26T14:06:48;5.05;;;2.90;;
59390;SDS011;53405;57.012;40.984;2023-06-26T14:09:16;5.55;;;2.60;;
59390;SDS011;53405;57.012;40.984;2023-06-26T14:11:43;4.47;;;2.70;;
59390;SDS011;53405;57.012;40.984;2023-06-26T14:14:12;5.07;;;2.40;;
59390;SDS011;53405;57.012;40.984;2023-06-26T14:16:40;4.70;;;2.80;;
59390;SDS011;53405;57.012;40.984;2023-06-26T14:19:07;4.60;;;2.85;;
59390;SDS011;53405;57.012;40.984;2023-06-26T14:21:41;7.65;;;2.70;;
59390;SDS011;53405;57.012;40.984;2023-06-26T14:24:09;5.80;;;2.80;;
59390;SDS011;53405;57.012;40.984;2023-06-26T14:26:37;5.03;;;2.95;;
59390;SDS011;53405;57.012;40.984;2023-06-26T14:29:06;4.55;;;3.05;;
59390;SDS011;53405;57.012;40.984;2023-06-26T14:31:33;7.35;;;3.20;;
59390;SDS011;53405;57.012;40.984;2023-06-26T14:34:01;5.20;;;2.83;;
59390;SDS011;53405;57.012;40.984;2023-06-26T14:38:59;5.45;;;2.75;;
59390;SDS011;53405;57.012;40.984;2023-06-26T14:41:27;5.73;;;2.50;;
59390;SDS011;53405;57.012;40.984;2023-06-26T14:43:55;5.23;;;3.07;;
59390;SDS011;53405;57.012;40.984;2023-06-26T14:46:22;5.18;;;2.55;;
59390;SDS011;53405;57.012;40.984;2023-06-26T14:48:50;4.60;;;2.17;;
59390;SDS011;53405;57.012;40.984;2023-06-26T14:51:18;5.50;;;2.45;;
59390;SDS011;53405;57.012;40.984;2023-06-26T14:53:46;4.50;;;2.33;;
59390;SDS011;53405;57.012;40.984;2023-06-26T14:56:14;4.00;;;2.40;;
59390;SDS011;53405;57.012;40.984;2023-06-26T14:58:42;5.03;;;2.42;;
59390;SDS011;53405;57.012;40.984;2023-06-26T15:01:10;5.43;;;2.70;;
59390;SDS011;53405;57.012;40.984;2023-06-26T15:03:38;5.63;;;2.30;;
59390;SDS011;53405;57.012;40.984;2023-06-26T15:06:07;5.70;;;2.90;;
59390;SDS011;53405;57.012;40.984;2023-06-26T15:08:38;7.93;;;3.00;;
59390;SDS011;53405;57.012;40.984;2023-06-26T15:11:06;7.43;;;2.70;;
59390;SDS011;53405;57.012;40.984;2023-06-26T15:13:34;7.50;;;2.60;;
59390;SDS011;53405;57.012;40.984;2023-06-26T15:16:02;6.97;;;2.42;;